sensor_id;sensor_type;location;lat;lon;timestamp;P1;durP1;ratioP1;P2;durP2;ratioP2
23434;SDS011;11890;45.380;11.028;2022-11-18T00:01:16;35.13;;;17.88;;
23434;SDS011;11890;45.380;11.028;2022-11-18T00:03:48;33.58;;;16.83;;
23434;SDS011;11890;45.380;11.028;2022-11-18T00:06:17;42.40;;;19.02;;
23434;SDS011;11890;45.380;11.028;2022-11-18T00:08:46;36.30;;;17.58;;
23434;SDS011;11890;45.380;11.028;2022-11-18T00:11:15;36.08;;;17.98;;
23434;SDS011;11890;45.380;11.028;2022-11-18T00:14:03;33.25;;;17.15;;
23434;SDS011;11890;45.380;11.028;2022-11-18T00:19:20;34.28;;;18.13;;
23434;SDS011;11890;45.380;11.028;2022-11-18T00:21:54;35.15;;;16.92;;
23434;SDS011;11890;45.380;11.028;2022-11-18T00:24:23;32.67;;;17.85;;
23434;SDS011;11890;45.380;11.028;2022-11-18T00:26:51;30.15;;;16.17;;
23434;SDS011;11890;45.380;11.028;2022-11-18T00:29:19;35.72;;;17.23;;
23434;SDS011;11890;45.380;11.028;2022-11-18T00:31:47;35.58;;;17.17;;
23434;SDS011;11890;45.380;11.028;2022-11-18T00:34:15;35.75;;;17.30;;
23434;SDS011;11890;45.380;11.028;2022-11-18T00:36:44;34.80;;;17.70;;
23434;SDS011;11890;45.380;11.028;2022-11-18T00:39:13;33.05;;;17.42;;
23434;SDS011;11890;45.380;11.028;2022-11-18T00:41:44;35.40;;;17.55;;
23434;SDS011;11890;45.380;11.028;2022-11-18T00:44:40;32.08;;;15.38;;
23434;SDS011;11890;45.380;11.028;2022-11-18T00:47:08;31.65;;;16.50;;
23434;SDS011;11890;45.380;11.028;2022-11-18T00:49:35;34.95;;;16.70;;
23434;SDS011;11890;45.380;11.028;2022-11-18T00:52:02;32.00;;;15.68;;
23434;SDS011;11890;45.380;11.028;2022-11-18T00:54:31;27.25;;;14.52;;
23434;SDS011;11890;45.380;11.028;2022-11-18T00:56:58;27.88;;;15.40;;
23434;SDS011;11890;45.380;11.028;2022-11-18T00:59:26;30.75;;;15.48;;
23434;SDS011;11890;45.380;11.028;2022-11-18T01:01:53;29.98;;;15.43;;
23434;SDS011;11890;45.380;11.028;2022-11-18T01:04:21;28.98;;;14.48;;
23434;SDS011;11890;45.380;11.028;2022-11-18T01:06:48;28.42;;;15.20;;
23434;SDS011;11890;45.380;11.028;2022-11-18T01:09:16;32.97;;;15.77;;
23434;SDS011;11890;45.380;11.028;2022-11-18T01:11:44;31.40;;;15.65;;
23434;SDS011;11890;45.380;11.028;2022-11-18T01:14:29;32.10;;;17.15;;
23434;SDS011;11890;45.380;11.028;2022-11-18T01:16:57;26.90;;;14.40;;
23434;SDS011;11890;45.380;11.028;2022-11-18T01:19:24;29.95;;;14.98;;
23434;SDS011;11890;45.380;11.028;2022-11-18T01:21:52;31.50;;;15.73;;
23434;SDS011;11890;45.380;11.028;2022-11-18T01:24:19;32.47;;;15.05;;
23434;SDS011;11890;45.380;11.028;2022-11-18T01:26:47;31.17;;;14.88;;
23434;SDS011;11890;45.380;11.028;2022-11-18T01:29:14;28.02;;;14.45;;
23434;SDS011;11890;45.380;11.028;2022-11-18T01:31:42;26.80;;;14.20;;
23434;SDS011;11890;45.380;11.028;2022-11-18T01:34:29;27.90;;;13.73;;
23434;SDS011;11890;45.380;11.028;2022-11-18T01:36:57;28.85;;;13.82;;
23434;SDS011;11890;45.380;11.028;2022-11-18T01:39:27;28.92;;;13.38;;
23434;SDS011;11890;45.380;11.028;2022-11-18T01:41:55;23.77;;;12.55;;
23434;SDS011;11890;45.380;11.028;2022-11-18T01:47:21;22.58;;;12.05;;
23434;SDS011;11890;45.380;11.028;2022-11-18T01:49:51;23.50;;;11.35;;
23434;SDS011;11890;45.380;11.028;2022-11-18T01:52:19;20.73;;;11.27;;
23434;SDS011;11890;45.380;11.028;2022-11-18T01:54:48;22.42;;;11.30;;
23434;SDS011;11890;45.380;11.028;2022-11-18T01:57:21;19.38;;;11.32;;
23434;SDS011;11890;45.380;11.028;2022-11-18T01:59:53;21.20;;;10.32;;
23434;SDS011;11890;45.380;11.028;2022-11-18T02:02:23;22.67;;;11.55;;
23434;SDS011;11890;45.380;11.028;2022-11-18T02:04:51;19.42;;;10.20;;
23434;SDS011;11890;45.380;11.028;2022-11-18T02:07:22;24.27;;;12.00;;
23434;SDS011;11890;45.380;11.028;2022-11-18T02:09:50;23.17;;;11.35;;
23434;SDS011;11890;45.380;11.028;2022-11-18T02:12:19;18.38;;;11.07;;
23434;SDS011;11890;45.380;11.028;2022-11-18T02:14:46;21.38;;;10.77;;
23434;SDS011;11890;45.380;11.028;2022-11-18T02:36:07;25.20;;;11.77;;
23434;SDS011;11890;45.380;11.028;2022-11-18T02:38:45;22.55;;;11.40;;
23434;SDS011;11890;45.380;11.028;2022-11-18T02:41:21;21.15;;;11.25;;
23434;SDS011;11890;45.380;11.028;2022-11-18T02:43:53;20.15;;;10.68;;
23434;SDS011;11890;45.380;11.028;2022-11-18T02:46:34;20.20;;;11.15;;
23434;SDS011;11890;45.380;11.028;2022-11-18T02:49:09;19.98;;;9.80;;
23434;SDS011;11890;45.380;11.028;2022-11-18T02:51:47;24.20;;;10.83;;
23434;SDS011;11890;45.380;11.028;2022-11-18T02:54:17;22.02;;;9.98;;
23434;SDS011;11890;45.380;11.028;2022-11-18T02:56:48;21.65;;;11.75;;
23434;SDS011;11890;45.380;11.028;2022-11-18T02:59:18;17.10;;;9.98;;
23434;SDS011;11890;45.380;11.028;2022-11-18T03:01:46;20.77;;;10.80;;
23434;SDS011;11890;45.380;11.028;2022-11-18T03:04:14;17.75;;;9.95;;
23434;SDS011;11890;45.380;11.028;2022-11-18T03:09:44;21.73;;;10.35;;
23434;SDS011;11890;45.380;11.028;2022-11-18T03:12:29;18.08;;;10.27;;
23434;SDS011;11890;45.380;11.028;2022-11-18T03:15:15;22.10;;;11.93;;
23434;SDS011;11890;45.380;11.028;2022-11-18T03:18:35;18.65;;;9.48;;
23434;SDS011;11890;45.380;11.028;2022-11-18T03:21:12;22.88;;;11.27;;
23434;SDS011;11890;45.380;11.028;2022-11-18T03:26:21;19.30;;;10.80;;
23434;SDS011;11890;45.380;11.028;2022-11-18T03:28:57;21.98;;;10.75;;
23434;SDS011;11890;45.380;11.028;2022-11-18T03:31:42;21.20;;;10.80;;
23434;SDS011;11890;45.380;11.028;2022-11-18T03:34:29;20.60;;;11.60;;
23434;SDS011;11890;45.380;11.028;2022-11-18T03:37:01;20.05;;;10.20;;
23434;SDS011;11890;45.380;11.028;2022-11-18T03:39:37;17.02;;;9.07;;
23434;SDS011;11890;45.380;11.028;2022-11-18T03:44:42;20.77;;;8.85;;
23434;SDS011;11890;45.380;11.028;2022-11-18T03:47:20;14.82;;;8.82;;
23434;SDS011;11890;45.380;11.028;2022-11-18T03:49:55;16.48;;;7.60;;
23434;SDS011;11890;45.380;11.028;2022-11-18T03:52:28;19.35;;;8.10;;
23434;SDS011;11890;45.380;11.028;2022-11-18T03:55:00;17.17;;;8.48;;
23434;SDS011;11890;45.380;11.028;2022-11-18T03:57:52;15.75;;;7.85;;
23434;SDS011;11890;45.380;11.028;2022-11-18T04:00:40;15.35;;;8.05;;
23434;SDS011;11890;45.380;11.028;2022-11-18T04:03:11;16.70;;;9.38;;
23434;SDS011;11890;45.380;11.028;2022-11-18T04:05:40;16.13;;;8.15;;
23434;SDS011;11890;45.380;11.028;2022-11-18T04:08:14;15.88;;;8.70;;
23434;SDS011;11890;45.380;11.028;2022-11-18T04:10:54;19.67;;;9.75;;
23434;SDS011;11890;45.380;11.028;2022-11-18T04:14:03;19.20;;;8.90;;
23434;SDS011;11890;45.380;11.028;2022-11-18T04:16:39;18.42;;;10.18;;
23434;SDS011;11890;45.380;11.028;2022-11-18T04:19:10;20.63;;;10.43;;
23434;SDS011;11890;45.380;11.028;2022-11-18T04:21:38;19.95;;;10.23;;
23434;SDS011;11890;45.380;11.028;2022-11-18T04:24:05;22.83;;;9.65;;
23434;SDS011;11890;45.380;11.028;2022-11-18T04:26:33;18.27;;;9.45;;
23434;SDS011;11890;45.380;11.028;2022-11-18T04:29:00;18.92;;;9.75;;
23434;SDS011;11890;45.380;11.028;2022-11-18T04:31:27;18.80;;;10.45;;
23434;SDS011;11890;45.380;11.028;2022-11-18T04:33:55;22.73;;;10.95;;
23434;SDS011;11890;45.380;11.028;2022-11-18T04:36:22;19.35;;;10.40;;
23434;SDS011;11890;45.380;11.028;2022-11-18T04:38:49;20.48;;;10.77;;
23434;SDS011;11890;45.380;11.028;2022-11-18T04:41:17;19.98;;;10.40;;
23434;SDS011;11890;45.380;11.028;2022-11-18T04:43:44;21.48;;;10.60;;
23434;SDS011;11890;45.380;11.028;2022-11-18T04:46:11;20.27;;;9.82;;
23434;SDS011;11890;45.380;11.028;2022-11-18T04:48:39;25.50;;;11.23;;
23434;SDS011;11890;45.380;11.028;2022-11-18T04:51:06;21.95;;;11.63;;
23434;SDS011;11890;45.380;11.028;2022-11-18T04:53:34;24.77;;;12.18;;
23434;SDS011;11890;45.380;11.028;2022-11-18T04:56:05;22.05;;;11.52;;
23434;SDS011;11890;45.380;11.028;2022-11-18T04:58:32;25.63;;;12.82;;
23434;SDS011;11890;45.380;11.028;2022-11-18T05:01:00;23.38;;;12.32;;
23434;SDS011;11890;45.380;11.028;2022-11-18T05:03:27;23.15;;;12.82;;
23434;SDS011;11890;45.380;11.028;2022-11-18T05:05:54;28.27;;;15.48;;
23434;SDS011;11890;45.380;11.028;2022-11-18T05:08:21;26.92;;;12.55;;
23434;SDS011;11890;45.380;11.028;2022-11-18T05:10:49;25.88;;;13.80;;
23434;SDS011;11890;45.380;11.028;2022-11-18T05:13:16;33.97;;;16.58;;
23434;SDS011;11890;45.380;11.028;2022-11-18T05:15:43;31.08;;;15.45;;
23434;SDS011;11890;45.380;11.028;2022-11-18T05:18:11;28.63;;;16.33;;
23434;SDS011;11890;45.380;11.028;2022-11-18T05:20:38;35.13;;;16.02;;
23434;SDS011;11890;45.380;11.028;2022-11-18T05:23:07;31.77;;;15.70;;
23434;SDS011;11890;45.380;11.028;2022-11-18T05:25:35;35.28;;;17.90;;
23434;SDS011;11890;45.380;11.028;2022-11-18T05:28:02;34.00;;;16.25;;
23434;SDS011;11890;45.380;11.028;2022-11-18T05:30:29;42.03;;;17.15;;
23434;SDS011;11890;45.380;11.028;2022-11-18T05:32:57;39.25;;;17.73;;
23434;SDS011;11890;45.380;11.028;2022-11-18T05:35:24;40.78;;;19.90;;
23434;SDS011;11890;45.380;11.028;2022-11-18T05:37:52;41.45;;;18.67;;
23434;SDS011;11890;45.380;11.028;2022-11-18T05:40:19;42.40;;;19.95;;
23434;SDS011;11890;45.380;11.028;2022-11-18T05:42:47;40.50;;;19.35;;
23434;SDS011;11890;45.380;11.028;2022-11-18T05:45:32;52.00;;;22.92;;
23434;SDS011;11890;45.380;11.028;2022-11-18T05:48:00;48.72;;;20.95;;
23434;SDS011;11890;45.380;11.028;2022-11-18T05:50:30;41.13;;;19.30;;
23434;SDS011;11890;45.380;11.028;2022-11-18T05:52:58;43.20;;;19.88;;
23434;SDS011;11890;45.380;11.028;2022-11-18T05:55:28;50.30;;;21.38;;
23434;SDS011;11890;45.380;11.028;2022-11-18T05:58:05;39.53;;;18.98;;
23434;SDS011;11890;45.380;11.028;2022-11-18T06:00:32;46.42;;;21.40;;
23434;SDS011;11890;45.380;11.028;2022-11-18T06:03:00;44.58;;;20.10;;
23434;SDS011;11890;45.380;11.028;2022-11-18T06:05:29;44.00;;;20.92;;
23434;SDS011;11890;45.380;11.028;2022-11-18T06:07:56;42.42;;;20.05;;
23434;SDS011;11890;45.380;11.028;2022-11-18T06:10:26;42.38;;;20.00;;
23434;SDS011;11890;45.380;11.028;2022-11-18T06:12:57;42.92;;;21.27;;
23434;SDS011;11890;45.380;11.028;2022-11-18T06:15:39;45.85;;;22.48;;
23434;SDS011;11890;45.380;11.028;2022-11-18T06:20:39;46.42;;;21.25;;
23434;SDS011;11890;45.380;11.028;2022-11-18T06:23:07;48.70;;;23.80;;
23434;SDS011;11890;45.380;11.028;2022-11-18T06:25:38;48.08;;;23.00;;
23434;SDS011;11890;45.380;11.028;2022-11-18T06:28:06;48.13;;;22.45;;
23434;SDS011;11890;45.380;11.028;2022-11-18T06:30:36;44.75;;;21.92;;
23434;SDS011;11890;45.380;11.028;2022-11-18T06:33:04;49.05;;;22.15;;
23434;SDS011;11890;45.380;11.028;2022-11-18T06:35:31;48.80;;;22.35;;
23434;SDS011;11890;45.380;11.028;2022-11-18T06:37:58;51.00;;;23.27;;
23434;SDS011;11890;45.380;11.028;2022-11-18T06:40:26;46.40;;;21.27;;
23434;SDS011;11890;45.380;11.028;2022-11-18T06:43:06;46.92;;;22.08;;
23434;SDS011;11890;45.380;11.028;2022-11-18T06:45:52;40.65;;;21.73;;
23434;SDS011;11890;45.380;11.028;2022-11-18T06:48:46;47.75;;;22.60;;
23434;SDS011;11890;45.380;11.028;2022-11-18T06:51:14;53.88;;;24.08;;
23434;SDS011;11890;45.380;11.028;2022-11-18T06:53:41;53.97;;;23.77;;
23434;SDS011;11890;45.380;11.028;2022-11-18T06:56:09;51.00;;;23.08;;
23434;SDS011;11890;45.380;11.028;2022-11-18T06:58:38;49.55;;;22.13;;
23434;SDS011;11890;45.380;11.028;2022-11-18T07:03:38;47.42;;;21.75;;
23434;SDS011;11890;45.380;11.028;2022-11-18T07:06:07;50.47;;;23.90;;
23434;SDS011;11890;45.380;11.028;2022-11-18T07:08:35;49.75;;;22.25;;
23434;SDS011;11890;45.380;11.028;2022-11-18T07:11:04;48.47;;;22.35;;
23434;SDS011;11890;45.380;11.028;2022-11-18T07:13:33;47.85;;;22.15;;
23434;SDS011;11890;45.380;11.028;2022-11-18T07:16:09;49.33;;;21.80;;
23434;SDS011;11890;45.380;11.028;2022-11-18T07:18:38;48.80;;;22.42;;
23434;SDS011;11890;45.380;11.028;2022-11-18T07:21:11;49.45;;;22.10;;
23434;SDS011;11890;45.380;11.028;2022-11-18T07:23:40;59.03;;;25.43;;
23434;SDS011;11890;45.380;11.028;2022-11-18T07:26:07;56.65;;;25.55;;
23434;SDS011;11890;45.380;11.028;2022-11-18T07:28:35;51.80;;;21.75;;
23434;SDS011;11890;45.380;11.028;2022-11-18T07:31:04;48.70;;;22.38;;
23434;SDS011;11890;45.380;11.028;2022-11-18T07:33:33;51.50;;;23.10;;
23434;SDS011;11890;45.380;11.028;2022-11-18T07:36:04;53.00;;;24.52;;
23434;SDS011;11890;45.380;11.028;2022-11-18T07:38:32;60.80;;;25.05;;
23434;SDS011;11890;45.380;11.028;2022-11-18T07:43:35;55.38;;;24.90;;
23434;SDS011;11890;45.380;11.028;2022-11-18T07:48:54;51.03;;;21.40;;
23434;SDS011;11890;45.380;11.028;2022-11-18T07:51:24;46.70;;;21.15;;
23434;SDS011;11890;45.380;11.028;2022-11-18T07:53:53;49.30;;;21.90;;
23434;SDS011;11890;45.380;11.028;2022-11-18T07:56:21;52.95;;;22.02;;
23434;SDS011;11890;45.380;11.028;2022-11-18T07:58:52;53.97;;;22.40;;
23434;SDS011;11890;45.380;11.028;2022-11-18T08:01:23;55.03;;;24.17;;
23434;SDS011;11890;45.380;11.028;2022-11-18T08:03:55;58.45;;;23.38;;
23434;SDS011;11890;45.380;11.028;2022-11-18T08:06:23;57.95;;;22.30;;
23434;SDS011;11890;45.380;11.028;2022-11-18T08:08:51;57.50;;;22.83;;
23434;SDS011;11890;45.380;11.028;2022-11-18T08:11:19;57.08;;;23.90;;
23434;SDS011;11890;45.380;11.028;2022-11-18T08:13:49;52.70;;;21.85;;
23434;SDS011;11890;45.380;11.028;2022-11-18T08:16:18;51.40;;;22.55;;
23434;SDS011;11890;45.380;11.028;2022-11-18T08:18:48;50.38;;;24.23;;
23434;SDS011;11890;45.380;11.028;2022-11-18T08:21:16;46.35;;;21.75;;
23434;SDS011;11890;45.380;11.028;2022-11-18T08:23:51;43.95;;;19.90;;
23434;SDS011;11890;45.380;11.028;2022-11-18T08:26:20;49.67;;;23.13;;
23434;SDS011;11890;45.380;11.028;2022-11-18T08:28:49;47.08;;;22.92;;
23434;SDS011;11890;45.380;11.028;2022-11-18T08:31:26;52.85;;;22.15;;
23434;SDS011;11890;45.380;11.028;2022-11-18T08:33:56;50.60;;;23.83;;
23434;SDS011;11890;45.380;11.028;2022-11-18T08:36:29;58.25;;;22.55;;
23434;SDS011;11890;45.380;11.028;2022-11-18T08:38:59;55.80;;;22.25;;
23434;SDS011;11890;45.380;11.028;2022-11-18T08:41:32;42.55;;;20.23;;
23434;SDS011;11890;45.380;11.028;2022-11-18T08:44:10;46.85;;;22.10;;
23434;SDS011;11890;45.380;11.028;2022-11-18T08:46:42;46.45;;;23.17;;
23434;SDS011;11890;45.380;11.028;2022-11-18T08:49:13;44.17;;;20.20;;
23434;SDS011;11890;45.380;11.028;2022-11-18T08:51:41;39.05;;;19.20;;
23434;SDS011;11890;45.380;11.028;2022-11-18T08:54:08;48.67;;;21.13;;
23434;SDS011;11890;45.380;11.028;2022-11-18T08:56:36;45.50;;;21.25;;
23434;SDS011;11890;45.380;11.028;2022-11-18T08:59:03;44.97;;;19.42;;
23434;SDS011;11890;45.380;11.028;2022-11-18T09:01:31;41.20;;;18.55;;
23434;SDS011;11890;45.380;11.028;2022-11-18T09:03:58;38.30;;;18.48;;
23434;SDS011;11890;45.380;11.028;2022-11-18T09:06:25;45.63;;;19.67;;
23434;SDS011;11890;45.380;11.028;2022-11-18T09:08:53;41.50;;;19.90;;
23434;SDS011;11890;45.380;11.028;2022-11-18T09:11:21;40.58;;;20.92;;
23434;SDS011;11890;45.380;11.028;2022-11-18T09:13:54;50.67;;;19.48;;
23434;SDS011;11890;45.380;11.028;2022-11-18T09:16:43;45.42;;;20.65;;
23434;SDS011;11890;45.380;11.028;2022-11-18T09:19:13;43.20;;;19.20;;
23434;SDS011;11890;45.380;11.028;2022-11-18T09:22:02;44.55;;;19.50;;
23434;SDS011;11890;45.380;11.028;2022-11-18T09:24:30;38.58;;;19.10;;
23434;SDS011;11890;45.380;11.028;2022-11-18T09:26:58;37.97;;;17.75;;
23434;SDS011;11890;45.380;11.028;2022-11-18T09:29:30;40.97;;;18.45;;
23434;SDS011;11890;45.380;11.028;2022-11-18T09:31:58;42.45;;;19.98;;
23434;SDS011;11890;45.380;11.028;2022-11-18T09:34:27;42.45;;;20.33;;
23434;SDS011;11890;45.380;11.028;2022-11-18T09:36:55;38.60;;;20.77;;
23434;SDS011;11890;45.380;11.028;2022-11-18T09:39:23;41.40;;;19.35;;
23434;SDS011;11890;45.380;11.028;2022-11-18T09:41:59;41.05;;;19.00;;
23434;SDS011;11890;45.380;11.028;2022-11-18T09:50:20;40.03;;;19.65;;
23434;SDS011;11890;45.380;11.028;2022-11-18T09:55:50;40.22;;;18.80;;
23434;SDS011;11890;45.380;11.028;2022-11-18T09:58:23;44.78;;;20.27;;
23434;SDS011;11890;45.380;11.028;2022-11-18T10:00:52;42.13;;;20.50;;
23434;SDS011;11890;45.380;11.028;2022-11-18T10:03:26;37.90;;;18.33;;
23434;SDS011;11890;45.380;11.028;2022-11-18T10:06:19;46.03;;;20.60;;
23434;SDS011;11890;45.380;11.028;2022-11-18T10:17:34;38.80;;;19.05;;
23434;SDS011;11890;45.380;11.028;2022-11-18T10:20:15;38.97;;;18.55;;
23434;SDS011;11890;45.380;11.028;2022-11-18T10:22:57;44.70;;;19.20;;
23434;SDS011;11890;45.380;11.028;2022-11-18T10:25:33;36.22;;;18.52;;
23434;SDS011;11890;45.380;11.028;2022-11-18T10:28:10;32.75;;;16.50;;
23434;SDS011;11890;45.380;11.028;2022-11-18T10:31:06;35.08;;;17.20;;
23434;SDS011;11890;45.380;11.028;2022-11-18T10:33:36;33.80;;;17.67;;
23434;SDS011;11890;45.380;11.028;2022-11-18T10:38:35;33.10;;;15.80;;
23434;SDS011;11890;45.380;11.028;2022-11-18T10:41:06;37.20;;;17.48;;
23434;SDS011;11890;45.380;11.028;2022-11-18T10:43:49;33.20;;;17.75;;
23434;SDS011;11890;45.380;11.028;2022-11-18T10:46:25;30.90;;;15.95;;
23434;SDS011;11890;45.380;11.028;2022-11-18T10:51:35;29.33;;;14.93;;
23434;SDS011;11890;45.380;11.028;2022-11-18T10:59:50;35.20;;;18.10;;
23434;SDS011;11890;45.380;11.028;2022-11-18T11:05:21;29.98;;;16.17;;
23434;SDS011;11890;45.380;11.028;2022-11-18T11:08:02;30.65;;;15.90;;
23434;SDS011;11890;45.380;11.028;2022-11-18T11:10:55;27.58;;;15.00;;
23434;SDS011;11890;45.380;11.028;2022-11-18T11:13:26;29.50;;;15.30;;
23434;SDS011;11890;45.380;11.028;2022-11-18T11:15:57;32.17;;;16.15;;
23434;SDS011;11890;45.380;11.028;2022-11-18T11:18:29;27.83;;;14.95;;
23434;SDS011;11890;45.380;11.028;2022-11-18T11:21:11;31.02;;;16.25;;
23434;SDS011;11890;45.380;11.028;2022-11-18T11:23:39;33.97;;;16.10;;
23434;SDS011;11890;45.380;11.028;2022-11-18T11:35:31;24.23;;;14.32;;
23434;SDS011;11890;45.380;11.028;2022-11-18T11:38:12;20.80;;;12.52;;
23434;SDS011;11890;45.380;11.028;2022-11-18T11:43:57;26.17;;;14.73;;
23434;SDS011;11890;45.380;11.028;2022-11-18T11:55:27;27.25;;;15.25;;
23434;SDS011;11890;45.380;11.028;2022-11-18T11:58:07;24.80;;;14.25;;
23434;SDS011;11890;45.380;11.028;2022-11-18T12:01:01;27.90;;;14.25;;
23434;SDS011;11890;45.380;11.028;2022-11-18T12:06:18;29.83;;;14.95;;
23434;SDS011;11890;45.380;11.028;2022-11-18T12:12:00;26.83;;;14.20;;
23434;SDS011;11890;45.380;11.028;2022-11-18T12:18:03;21.13;;;12.82;;
23434;SDS011;11890;45.380;11.028;2022-11-18T12:20:35;26.15;;;14.57;;
23434;SDS011;11890;45.380;11.028;2022-11-18T12:33:56;21.48;;;13.48;;
23434;SDS011;11890;45.380;11.028;2022-11-18T12:36:34;22.45;;;12.48;;
23434;SDS011;11890;45.380;11.028;2022-11-18T12:39:45;19.05;;;10.70;;
23434;SDS011;11890;45.380;11.028;2022-11-18T12:44:35;24.50;;;11.55;;
23434;SDS011;11890;45.380;11.028;2022-11-18T12:47:05;24.13;;;11.63;;
23434;SDS011;11890;45.380;11.028;2022-11-18T12:54:59;22.70;;;12.23;;
23434;SDS011;11890;45.380;11.028;2022-11-18T12:57:29;18.77;;;10.60;;
23434;SDS011;11890;45.380;11.028;2022-11-18T13:00:17;19.88;;;11.73;;
23434;SDS011;11890;45.380;11.028;2022-11-18T13:02:55;22.95;;;12.27;;
23434;SDS011;11890;45.380;11.028;2022-11-18T13:05:27;22.20;;;11.80;;
23434;SDS011;11890;45.380;11.028;2022-11-18T13:13:43;21.17;;;12.02;;
23434;SDS011;11890;45.380;11.028;2022-11-18T13:16:22;25.23;;;11.80;;
23434;SDS011;11890;45.380;11.028;2022-11-18T13:19:09;19.30;;;11.13;;
23434;SDS011;11890;45.380;11.028;2022-11-18T13:21:54;17.85;;;10.27;;
23434;SDS011;11890;45.380;11.028;2022-11-18T13:24:46;19.88;;;11.55;;
23434;SDS011;11890;45.380;11.028;2022-11-18T13:27:25;24.52;;;11.43;;
23434;SDS011;11890;45.380;11.028;2022-11-18T13:30:13;19.10;;;11.13;;
23434;SDS011;11890;45.380;11.028;2022-11-18T13:32:45;21.00;;;11.45;;
23434;SDS011;11890;45.380;11.028;2022-11-18T13:35:15;21.83;;;11.47;;
23434;SDS011;11890;45.380;11.028;2022-11-18T13:37:54;20.58;;;10.77;;
23434;SDS011;11890;45.380;11.028;2022-11-18T13:40:30;25.00;;;12.25;;
23434;SDS011;11890;45.380;11.028;2022-11-18T13:43:08;23.50;;;12.55;;
23434;SDS011;11890;45.380;11.028;2022-11-18T13:45:37;24.80;;;12.45;;
23434;SDS011;11890;45.380;11.028;2022-11-18T13:48:09;23.35;;;12.70;;
23434;SDS011;11890;45.380;11.028;2022-11-18T13:50:41;25.25;;;14.25;;
23434;SDS011;11890;45.380;11.028;2022-11-18T13:53:32;25.25;;;13.10;;
23434;SDS011;11890;45.380;11.028;2022-11-18T13:56:13;35.13;;;16.48;;
23434;SDS011;11890;45.380;11.028;2022-11-18T13:58:54;30.60;;;14.88;;
23434;SDS011;11890;45.380;11.028;2022-11-18T14:01:45;31.13;;;15.90;;
23434;SDS011;11890;45.380;11.028;2022-11-18T14:04:19;28.45;;;14.18;;
23434;SDS011;11890;45.380;11.028;2022-11-18T14:06:48;32.03;;;16.05;;
23434;SDS011;11890;45.380;11.028;2022-11-18T14:09:18;30.30;;;14.38;;
23434;SDS011;11890;45.380;11.028;2022-11-18T14:11:56;27.80;;;15.27;;
23434;SDS011;11890;45.380;11.028;2022-11-18T14:14:39;28.02;;;15.50;;
23434;SDS011;11890;45.380;11.028;2022-11-18T14:17:15;32.92;;;17.05;;
23434;SDS011;11890;45.380;11.028;2022-11-18T14:19:43;34.13;;;15.85;;
23434;SDS011;11890;45.380;11.028;2022-11-18T14:22:18;31.15;;;16.15;;
23434;SDS011;11890;45.380;11.028;2022-11-18T14:24:57;31.50;;;15.75;;
23434;SDS011;11890;45.380;11.028;2022-11-18T14:30:25;31.30;;;16.13;;
23434;SDS011;11890;45.380;11.028;2022-11-18T14:35:37;37.65;;;16.60;;
23434;SDS011;11890;45.380;11.028;2022-11-18T14:38:09;31.27;;;15.63;;
23434;SDS011;11890;45.380;11.028;2022-11-18T14:41:00;34.20;;;16.50;;
23434;SDS011;11890;45.380;11.028;2022-11-18T14:43:29;31.02;;;16.45;;
23434;SDS011;11890;45.380;11.028;2022-11-18T14:46:01;31.95;;;15.18;;
23434;SDS011;11890;45.380;11.028;2022-11-18T14:48:47;31.23;;;14.50;;
23434;SDS011;11890;45.380;11.028;2022-11-18T14:51:15;29.00;;;14.77;;
23434;SDS011;11890;45.380;11.028;2022-11-18T14:53:43;35.50;;;17.25;;
23434;SDS011;11890;45.380;11.028;2022-11-18T14:56:19;30.65;;;15.57;;
23434;SDS011;11890;45.380;11.028;2022-11-18T14:58:56;32.08;;;16.80;;
23434;SDS011;11890;45.380;11.028;2022-11-18T15:01:23;33.35;;;15.95;;
23434;SDS011;11890;45.380;11.028;2022-11-18T15:03:56;28.17;;;15.65;;
23434;SDS011;11890;45.380;11.028;2022-11-18T15:06:24;32.42;;;15.82;;
23434;SDS011;11890;45.380;11.028;2022-11-18T15:08:51;32.20;;;15.48;;
23434;SDS011;11890;45.380;11.028;2022-11-18T15:11:19;31.77;;;15.38;;
23434;SDS011;11890;45.380;11.028;2022-11-18T15:13:47;32.22;;;15.23;;
23434;SDS011;11890;45.380;11.028;2022-11-18T15:16:15;32.17;;;15.73;;
23434;SDS011;11890;45.380;11.028;2022-11-18T15:18:49;35.17;;;16.42;;
23434;SDS011;11890;45.380;11.028;2022-11-18T15:21:18;30.45;;;16.55;;
23434;SDS011;11890;45.380;11.028;2022-11-18T15:23:46;32.60;;;16.17;;
23434;SDS011;11890;45.380;11.028;2022-11-18T15:26:17;34.75;;;16.60;;
23434;SDS011;11890;45.380;11.028;2022-11-18T15:28:56;27.60;;;15.45;;
23434;SDS011;11890;45.380;11.028;2022-11-18T15:31:23;33.38;;;15.85;;
23434;SDS011;11890;45.380;11.028;2022-11-18T15:33:51;28.10;;;15.68;;
23434;SDS011;11890;45.380;11.028;2022-11-18T15:36:20;28.90;;;15.35;;
23434;SDS011;11890;45.380;11.028;2022-11-18T15:38:52;30.73;;;15.40;;
23434;SDS011;11890;45.380;11.028;2022-11-18T15:41:21;33.10;;;15.43;;
23434;SDS011;11890;45.380;11.028;2022-11-18T15:43:51;26.58;;;15.15;;
23434;SDS011;11890;45.380;11.028;2022-11-18T15:46:20;28.27;;;15.13;;
23434;SDS011;11890;45.380;11.028;2022-11-18T15:48:52;28.73;;;17.15;;
23434;SDS011;11890;45.380;11.028;2022-11-18T15:51:21;29.58;;;16.08;;
23434;SDS011;11890;45.380;11.028;2022-11-18T15:53:49;33.58;;;15.77;;
23434;SDS011;11890;45.380;11.028;2022-11-18T15:58:53;30.75;;;16.10;;
23434;SDS011;11890;45.380;11.028;2022-11-18T16:01:26;31.02;;;14.80;;
23434;SDS011;11890;45.380;11.028;2022-11-18T16:03:55;30.33;;;18.45;;
23434;SDS011;11890;45.380;11.028;2022-11-18T16:06:24;28.92;;;15.93;;
23434;SDS011;11890;45.380;11.028;2022-11-18T16:08:51;27.40;;;15.27;;
23434;SDS011;11890;45.380;11.028;2022-11-18T16:11:26;31.40;;;16.20;;
23434;SDS011;11890;45.380;11.028;2022-11-18T16:14:13;25.92;;;15.25;;
23434;SDS011;11890;45.380;11.028;2022-11-18T16:16:43;36.53;;;18.63;;
23434;SDS011;11890;45.380;11.028;2022-11-18T16:19:13;33.10;;;16.75;;
23434;SDS011;11890;45.380;11.028;2022-11-18T16:21:43;31.75;;;18.25;;
23434;SDS011;11890;45.380;11.028;2022-11-18T16:24:17;36.22;;;17.58;;
23434;SDS011;11890;45.380;11.028;2022-11-18T16:26:46;35.17;;;17.58;;
23434;SDS011;11890;45.380;11.028;2022-11-18T16:29:14;36.10;;;18.13;;
23434;SDS011;11890;45.380;11.028;2022-11-18T16:31:45;34.17;;;17.80;;
23434;SDS011;11890;45.380;11.028;2022-11-18T16:34:23;37.13;;;17.40;;
23434;SDS011;11890;45.380;11.028;2022-11-18T16:36:53;28.35;;;16.23;;
23434;SDS011;11890;45.380;11.028;2022-11-18T16:39:27;31.48;;;16.25;;
23434;SDS011;11890;45.380;11.028;2022-11-18T16:41:58;32.55;;;16.88;;
23434;SDS011;11890;45.380;11.028;2022-11-18T16:44:34;32.85;;;18.00;;
23434;SDS011;11890;45.380;11.028;2022-11-18T16:47:03;35.53;;;18.58;;
23434;SDS011;11890;45.380;11.028;2022-11-18T16:49:40;37.65;;;19.00;;
23434;SDS011;11890;45.380;11.028;2022-11-18T16:52:08;32.25;;;17.40;;
23434;SDS011;11890;45.380;11.028;2022-11-18T16:54:35;30.27;;;16.10;;
23434;SDS011;11890;45.380;11.028;2022-11-18T16:57:11;30.55;;;17.02;;